createdAt,value
2023-02-07T00:01:32.587Z,85.00
2023-02-07T00:04:00.871Z,80.00
2023-02-07T00:06:32.854Z,79.40
2023-02-07T00:09:02.782Z,76.90
2023-02-07T00:11:31.213Z,73.70
2023-02-07T00:14:00.365Z,73.30
2023-02-07T00:16:29.343Z,78.70
2023-02-07T00:19:00.238Z,79.30
2023-02-07T00:21:29.772Z,76.60
2023-02-07T00:23:58.891Z,69.40
2023-02-07T00:26:28.617Z,61.90
2023-02-07T00:28:58.408Z,66.00
2023-02-07T00:31:30.470Z,66.40
2023-02-07T00:34:02.214Z,71.60
2023-02-07T00:36:32.852Z,71.10
2023-02-07T00:39:04.782Z,64.20
2023-02-07T00:41:33.071Z,65.80
2023-02-07T00:44:01.388Z,70.00
2023-02-07T00:46:34.866Z,68.90
2023-02-07T00:49:24.836Z,66.30
2023-02-07T00:51:54.277Z,59.80
2023-02-07T00:54:23.037Z,59.20
2023-02-07T00:56:51.179Z,61.80
2023-02-07T00:59:19.557Z,57.00
2023-02-07T01:01:48.624Z,58.80
2023-02-07T01:04:17.199Z,50.20
2023-02-07T01:06:46.022Z,51.30
2023-02-07T01:09:14.799Z,51.40
2023-02-07T01:11:43.187Z,47.30
2023-02-07T01:14:12.249Z,45.80
2023-02-07T01:16:40.817Z,43.90
2023-02-07T01:19:11.268Z,37.70
2023-02-07T01:21:39.856Z,37.50
2023-02-07T01:24:09.142Z,37.20
2023-02-07T01:26:38.689Z,35.10
2023-02-07T01:29:08.107Z,36.10
2023-02-07T01:31:36.923Z,33.40
2023-02-07T01:34:05.821Z,32.60
2023-02-07T01:36:34.920Z,32.00
2023-02-07T01:39:04.612Z,31.60
2023-02-07T01:41:33.046Z,31.90
2023-02-07T01:44:29.271Z,28.80
2023-02-07T01:46:58.389Z,29.40
2023-02-07T01:49:32.183Z,28.20
2023-02-07T01:52:05.429Z,28.70
2023-02-07T01:54:35.620Z,29.60
2023-02-07T01:57:09.832Z,26.60
2023-02-07T01:59:44.240Z,22.00
2023-02-07T02:02:16.177Z,23.40
2023-02-07T02:04:45.330Z,25.90
2023-02-07T02:07:14.954Z,25.10
2023-02-07T02:09:43.480Z,24.30
2023-02-07T02:12:42.831Z,20.50
2023-02-07T02:15:40.449Z,21.80
2023-02-07T02:18:27.950Z,21.00
2023-02-07T02:21:08.171Z,22.70
2023-02-07T02:23:59.907Z,22.70
2023-02-07T02:26:56.063Z,20.60
2023-02-07T02:30:01.735Z,21.90
2023-02-07T02:32:54.938Z,23.50
2023-02-07T02:35:48.468Z,23.80
2023-02-07T02:38:35.550Z,23.20
2023-02-07T02:41:10.745Z,21.90
2023-02-07T02:44:18.580Z,21.50
2023-02-07T02:46:49.223Z,20.90
2023-02-07T02:49:19.298Z,22.20
2023-02-07T02:51:52.122Z,24.80
2023-02-07T02:54:35.130Z,23.20
2023-02-07T02:57:09.128Z,20.90
2023-02-07T02:59:59.411Z,20.90
2023-02-07T03:03:19.608Z,19.10
2023-02-07T03:06:16.296Z,19.20
2023-02-07T03:09:03.442Z,18.60
2023-02-07T03:11:42.708Z,17.30
2023-02-07T03:14:36.296Z,17.70
2023-02-07T03:17:21.848Z,17.00
2023-02-07T03:20:37.870Z,18.40
2023-02-07T03:23:10.584Z,19.40
2023-02-07T03:25:40.581Z,18.90
2023-02-07T03:28:11.482Z,17.10
2023-02-07T03:30:44.377Z,18.10
2023-02-07T03:33:15.224Z,18.00
2023-02-07T03:36:06.495Z,17.10
2023-02-07T03:38:36.546Z,18.70
2023-02-07T03:41:16.975Z,17.50
2023-02-07T03:43:45.869Z,19.10
2023-02-07T03:46:14.446Z,19.40
2023-02-07T03:48:43.060Z,20.60
2023-02-07T03:51:12.314Z,21.10
2023-02-07T03:53:40.907Z,21.50
2023-02-07T03:56:09.814Z,19.40
2023-02-07T03:58:38.232Z,20.50
2023-02-07T04:01:06.822Z,18.10
2023-02-07T04:03:35.396Z,19.50
2023-02-07T04:06:04.589Z,19.40
2023-02-07T04:08:33.406Z,17.90
2023-02-07T04:11:04.005Z,16.80
2023-02-07T04:13:32.768Z,16.00
2023-02-07T04:16:01.537Z,17.60
2023-02-07T04:18:29.972Z,17.60
2023-02-07T04:21:07.459Z,17.20
2023-02-07T04:23:36.824Z,16.80
2023-02-07T04:26:05.348Z,16.60
2023-02-07T04:28:34.002Z,16.50
2023-02-07T04:31:03.294Z,16.80
2023-02-07T04:33:32.383Z,17.30
2023-02-07T04:36:03.553Z,15.90
2023-02-07T04:38:35.354Z,18.00
2023-02-07T04:41:06.269Z,17.80
2023-02-07T04:43:37.360Z,16.60
2023-02-07T04:46:07.366Z,12.50
2023-02-07T04:48:37.988Z,13.30
2023-02-07T04:51:07.422Z,13.00
2023-02-07T04:53:36.251Z,13.30
2023-02-07T04:56:05.437Z,13.70
2023-02-07T04:58:34.328Z,11.30
2023-02-07T05:01:03.152Z,12.20
2023-02-07T05:03:32.159Z,12.40
2023-02-07T05:06:00.567Z,12.10
2023-02-07T05:08:28.849Z,14.50
2023-02-07T05:10:57.653Z,13.70
2023-02-07T05:13:26.549Z,13.80
2023-02-07T05:15:55.159Z,8.80
2023-02-07T05:18:23.986Z,10.40
2023-02-07T05:20:53.746Z,7.70
2023-02-07T05:23:22.439Z,7.40
2023-02-07T05:25:51.084Z,6.70
2023-02-07T05:28:20.845Z,7.50
2023-02-07T05:30:54.118Z,5.90
2023-02-07T05:33:22.775Z,6.00
2023-02-07T05:35:51.080Z,4.30
2023-02-07T05:38:20.414Z,5.50
2023-02-07T05:40:48.875Z,6.50
2023-02-07T05:43:17.891Z,4.70
2023-02-07T05:45:46.558Z,6.10
2023-02-07T05:48:15.200Z,6.10
2023-02-07T05:50:43.714Z,4.70
2023-02-07T05:53:13.240Z,3.50
2023-02-07T05:55:41.830Z,4.20
2023-02-07T05:58:10.010Z,5.40
2023-02-07T06:00:38.428Z,5.00
2023-02-07T06:03:06.771Z,5.30
2023-02-07T06:05:35.525Z,4.70
2023-02-07T06:08:06.822Z,5.00
2023-02-07T06:10:36.189Z,6.10
2023-02-07T06:13:04.749Z,6.70
2023-02-07T06:15:33.425Z,9.60
2023-02-07T06:18:02.033Z,8.50
2023-02-07T06:20:30.957Z,9.60
2023-02-07T06:22:59.316Z,8.60
2023-02-07T06:25:27.743Z,10.10
2023-02-07T06:27:57.611Z,10.00
2023-02-07T06:30:28.649Z,10.20
2023-02-07T06:32:56.972Z,9.90
2023-02-07T06:35:25.928Z,8.10
2023-02-07T06:37:55.261Z,8.40
2023-02-07T06:40:23.762Z,8.70
2023-02-07T06:42:52.284Z,9.40
2023-02-07T06:45:20.594Z,8.70
2023-02-07T06:47:48.882Z,9.80
2023-02-07T06:50:17.436Z,8.80
2023-02-07T06:52:48.272Z,8.10
2023-02-07T06:55:16.529Z,7.80
2023-02-07T06:57:44.760Z,7.60
2023-02-07T07:00:13.903Z,7.20
2023-02-07T07:02:42.762Z,7.70
2023-02-07T07:05:11.399Z,10.60
2023-02-07T07:07:39.999Z,11.40
2023-02-07T07:10:08.876Z,13.40
2023-02-07T07:12:37.140Z,12.80
2023-02-07T07:15:05.788Z,12.20
2023-02-07T07:17:34.160Z,11.70
2023-02-07T07:20:02.499Z,13.10
2023-02-07T07:22:30.962Z,12.20
2023-02-07T07:25:01.856Z,9.90
2023-02-07T07:27:30.104Z,12.50
2023-02-07T07:29:58.272Z,13.60
2023-02-07T07:32:33.988Z,15.00
2023-02-07T07:35:08.069Z,14.70
2023-02-07T07:37:37.132Z,14.80
2023-02-07T07:40:06.029Z,14.50
2023-02-07T07:42:35.669Z,16.80
2023-02-07T07:45:04.428Z,21.60
2023-02-07T07:47:32.780Z,20.90
2023-02-07T07:50:01.051Z,21.70
2023-02-07T07:52:30.082Z,16.30
2023-02-07T07:54:58.372Z,16.20
2023-02-07T07:57:28.473Z,16.30
2023-02-07T07:59:56.707Z,17.90
2023-02-07T08:02:25.275Z,17.70
2023-02-07T08:04:53.537Z,14.90
2023-02-07T08:07:22.083Z,13.80
2023-02-07T08:09:50.442Z,13.80
2023-02-07T08:12:18.705Z,12.20
2023-02-07T08:14:49.853Z,11.60
2023-02-07T08:17:18.436Z,12.50
2023-02-07T08:19:48.942Z,12.40
2023-02-07T08:22:17.538Z,10.30
2023-02-07T08:24:46.336Z,8.60
2023-02-07T08:27:16.194Z,10.00
2023-02-07T08:29:46.684Z,9.20
2023-02-07T08:32:17.787Z,9.00
2023-02-07T08:34:46.239Z,8.30
2023-02-07T08:37:14.756Z,7.80
2023-02-07T08:39:44.714Z,8.00
2023-02-07T08:42:13.268Z,7.50
2023-02-07T08:44:41.682Z,7.80
2023-02-07T08:47:12.544Z,6.50
2023-02-07T08:49:40.663Z,5.80
2023-02-07T08:52:13.798Z,6.00
2023-02-07T08:54:45.506Z,5.60
2023-02-07T08:57:15.287Z,4.90
2023-02-07T08:59:43.940Z,6.20
2023-02-07T09:02:12.917Z,6.50
2023-02-07T09:04:43.415Z,6.60
2023-02-07T09:07:12.545Z,6.30
2023-02-07T09:09:40.916Z,7.20
2023-02-07T09:12:10.059Z,8.30
2023-02-07T09:14:39.499Z,5.20
2023-02-07T09:17:13.126Z,4.70
2023-02-07T09:19:41.575Z,6.20
2023-02-07T09:22:10.099Z,6.90
2023-02-07T09:24:38.734Z,6.40
2023-02-07T09:27:07.452Z,7.50
2023-02-07T09:29:35.806Z,8.60
2023-02-07T09:32:04.205Z,11.40
2023-02-07T09:34:34.695Z,9.00
2023-02-07T09:37:07.103Z,10.30
2023-02-07T09:39:37.224Z,12.00
2023-02-07T09:42:33.998Z,7.70
2023-02-07T09:45:11.034Z,6.80
2023-02-07T09:47:44.274Z,7.20
2023-02-07T09:50:28.163Z,6.60
2023-02-07T09:53:04.456Z,7.40
2023-02-07T09:55:49.451Z,9.30
2023-02-07T09:58:23.631Z,10.10
2023-02-07T10:01:01.551Z,11.60
2023-02-07T10:03:36.723Z,10.30
2023-02-07T10:06:20.700Z,9.30
2023-02-07T10:09:02.618Z,8.90
2023-02-07T10:11:34.739Z,12.70
2023-02-07T10:14:57.080Z,12.70
2023-02-07T10:17:57.473Z,12.20
2023-02-07T10:20:56.184Z,13.60
2023-02-07T10:23:58.524Z,12.30
2023-02-07T10:26:48.567Z,11.60
2023-02-07T10:29:49.018Z,9.40
2023-02-07T10:32:26.944Z,9.40
2023-02-07T10:35:03.918Z,7.20
2023-02-07T10:37:39.338Z,6.60
2023-02-07T10:40:23.521Z,8.10
2023-02-07T10:43:10.774Z,6.60
2023-02-07T10:45:49.883Z,3.50
2023-02-07T10:48:23.058Z,4.50
2023-02-07T10:50:58.078Z,5.20
2023-02-07T10:53:54.810Z,4.90
2023-02-07T10:56:28.231Z,4.20
2023-02-07T10:58:57.778Z,4.30
2023-02-07T11:01:32.359Z,5.30
2023-02-07T11:04:21.955Z,3.00
2023-02-07T11:07:01.236Z,5.20
2023-02-07T11:09:29.461Z,4.40
2023-02-07T11:11:58.559Z,3.90
2023-02-07T11:14:28.839Z,3.20
2023-02-07T11:17:21.633Z,3.60
2023-02-07T11:19:49.982Z,3.80
2023-02-07T11:22:20.631Z,3.80
2023-02-07T11:24:55.194Z,3.00
2023-02-07T11:27:23.976Z,2.40
2023-02-07T11:30:08.603Z,2.50
2023-02-07T11:32:38.707Z,4.40
2023-02-07T11:35:09.944Z,3.00
2023-02-07T11:37:47.938Z,2.80
2023-02-07T11:40:31.491Z,3.60
2023-02-07T11:43:12.444Z,3.20
2023-02-07T11:45:45.283Z,3.00
2023-02-07T11:48:20.417Z,2.70
2023-02-07T11:50:54.241Z,3.00
2023-02-07T11:53:44.825Z,2.60
2023-02-07T11:56:44.462Z,3.10
2023-02-07T11:59:20.327Z,4.20
2023-02-07T12:01:54.435Z,3.80
2023-02-07T12:04:31.545Z,4.50
2023-02-07T12:07:12.785Z,4.50
2023-02-07T12:09:55.320Z,3.70
2023-02-07T12:12:37.377Z,3.50
2023-02-07T12:15:37.801Z,3.90
2023-02-07T12:18:26.505Z,5.30
2023-02-07T12:21:06.824Z,4.60
2023-02-07T12:23:49.873Z,4.90
2023-02-07T12:26:22.322Z,5.00
2023-02-07T12:29:13.304Z,11.40
2023-02-07T12:31:50.016Z,3.30
2023-02-07T12:34:49.402Z,4.10
2023-02-07T12:37:40.571Z,3.20
2023-02-07T12:40:24.113Z,3.20
2023-02-07T12:42:58.074Z,3.60
2023-02-07T12:45:55.009Z,2.70
2023-02-07T12:48:44.614Z,3.90
2023-02-07T12:51:42.519Z,6.00
2023-02-07T12:54:30.467Z,6.30
2023-02-07T12:57:05.065Z,7.80
2023-02-07T13:00:04.021Z,6.90
2023-02-07T13:02:55.886Z,7.40
2023-02-07T13:06:02.687Z,7.90
2023-02-07T13:08:49.250Z,7.10
2023-02-07T13:11:52.577Z,8.20
2023-02-07T13:14:26.738Z,7.40
2023-02-07T13:17:34.077Z,11.20
2023-02-07T13:20:20.842Z,11.00
2023-02-07T13:23:11.670Z,8.70
2023-02-07T13:25:46.270Z,8.60
2023-02-07T13:28:21.590Z,8.70
2023-02-07T13:30:52.132Z,7.90
2023-02-07T13:33:30.055Z,7.30
2023-02-07T13:36:07.654Z,7.50
2023-02-07T13:38:47.287Z,7.70
2023-02-07T13:41:25.558Z,9.00
2023-02-07T13:44:23.534Z,9.40
2023-02-07T13:47:22.998Z,9.10
2023-02-07T13:49:57.728Z,9.70
2023-02-07T13:52:35.519Z,11.50
2023-02-07T13:55:24.624Z,11.30
2023-02-07T13:58:12.296Z,11.70
2023-02-07T14:00:58.937Z,10.80
2023-02-07T14:03:35.676Z,9.40
2023-02-07T14:06:26.969Z,9.70
2023-02-07T14:09:23.994Z,10.30
2023-02-07T14:12:21.080Z,10.00
2023-02-07T14:15:01.908Z,11.20
2023-02-07T14:17:30.772Z,10.10
2023-02-07T14:20:01.349Z,10.90
2023-02-07T14:22:32.563Z,11.00
2023-02-07T14:25:03.783Z,10.90
2023-02-07T14:27:34.181Z,13.50
2023-02-07T14:30:48.320Z,12.40
2023-02-07T14:33:20.464Z,11.50
2023-02-07T14:36:13.055Z,10.70
2023-02-07T14:38:46.337Z,11.90
2023-02-07T14:41:17.095Z,15.60
2023-02-07T14:44:08.555Z,14.40
2023-02-07T14:46:42.684Z,17.30
2023-02-07T14:49:14.027Z,18.00
2023-02-07T14:51:49.970Z,17.90
2023-02-07T14:54:43.444Z,17.60
2023-02-07T14:57:37.700Z,14.30
2023-02-07T15:00:29.021Z,14.10
2023-02-07T15:03:05.543Z,14.50
2023-02-07T15:05:49.605Z,14.80
2023-02-07T15:08:23.238Z,14.70
2023-02-07T15:11:03.786Z,14.40
2023-02-07T15:13:37.882Z,15.30
2023-02-07T15:16:08.787Z,15.50
2023-02-07T15:18:55.724Z,16.90
2023-02-07T15:21:28.599Z,15.90
2023-02-07T15:24:03.408Z,14.70
2023-02-07T15:26:32.923Z,15.70
2023-02-07T15:29:05.057Z,17.30
2023-02-07T15:31:41.540Z,17.20
2023-02-07T15:34:20.376Z,18.90
2023-02-07T15:36:50.917Z,22.50
2023-02-07T15:39:23.549Z,23.30
2023-02-07T15:41:55.119Z,25.10
2023-02-07T15:44:31.807Z,25.90
2023-02-07T15:47:05.407Z,23.50
2023-02-07T15:49:34.549Z,23.90
2023-02-07T15:52:17.241Z,24.20
2023-02-07T15:54:48.950Z,22.20
2023-02-07T15:57:29.762Z,23.90
2023-02-07T16:00:03.861Z,19.50
2023-02-07T16:02:37.774Z,19.80
2023-02-07T16:05:32.800Z,18.80
2023-02-07T16:08:07.048Z,16.40
2023-02-07T16:10:40.101Z,22.60
2023-02-07T16:13:17.740Z,18.20
2023-02-07T16:15:57.259Z,17.20
2023-02-07T16:18:39.671Z,16.10
2023-02-07T16:21:17.005Z,16.20
2023-02-07T16:23:49.867Z,20.20
2023-02-07T16:26:21.852Z,29.20
2023-02-07T16:28:50.801Z,23.90
2023-02-07T16:31:24.470Z,25.30
2023-02-07T16:33:55.920Z,28.50
2023-02-07T16:36:25.577Z,28.80
2023-02-07T16:38:54.074Z,21.60
2023-02-07T16:41:32.826Z,20.20
2023-02-07T16:44:05.100Z,19.80
2023-02-07T16:46:33.643Z,23.10
2023-02-07T16:49:03.614Z,24.10
2023-02-07T16:51:32.115Z,32.10
2023-02-07T16:54:00.471Z,21.80
2023-02-07T16:56:29.736Z,21.20
2023-02-07T16:58:57.876Z,23.90
2023-02-07T17:01:28.198Z,28.30
2023-02-07T17:03:57.590Z,24.10
2023-02-07T17:06:26.481Z,23.80
2023-02-07T17:08:57.335Z,18.70
2023-02-07T17:11:26.475Z,22.10
2023-02-07T17:13:56.831Z,22.30
2023-02-07T17:16:28.651Z,23.80
2023-02-07T17:18:58.678Z,21.50
2023-02-07T17:21:27.109Z,21.80
2023-02-07T17:23:55.641Z,20.20
2023-02-07T17:26:28.630Z,18.80
2023-02-07T17:28:57.302Z,18.30
2023-02-07T17:31:26.211Z,20.30
2023-02-07T17:33:56.753Z,21.80
2023-02-07T17:36:25.657Z,27.20
2023-02-07T17:38:55.051Z,30.60
2023-02-07T17:41:24.043Z,32.00
2023-02-07T17:43:53.288Z,23.40
2023-02-07T17:46:24.184Z,28.20
2023-02-07T17:48:53.588Z,30.90
2023-02-07T17:51:27.752Z,47.80
2023-02-07T17:53:56.851Z,43.90
2023-02-07T17:56:30.558Z,37.10
2023-02-07T17:59:02.817Z,41.50
2023-02-07T18:01:34.161Z,33.10
2023-02-07T18:04:02.982Z,39.10
2023-02-07T18:06:31.618Z,40.00
2023-02-07T18:09:00.151Z,33.00
2023-02-07T18:11:31.572Z,35.50
2023-02-07T18:14:02.196Z,44.60
2023-02-07T18:16:30.720Z,52.60
2023-02-07T18:18:59.477Z,52.00
2023-02-07T18:21:28.147Z,48.00
2023-02-07T18:23:56.927Z,51.00
2023-02-07T18:26:25.442Z,41.70
2023-02-07T18:28:53.965Z,40.90
2023-02-07T18:31:25.251Z,39.70
2023-02-07T18:33:54.652Z,57.70
2023-02-07T18:36:24.857Z,50.10
2023-02-07T18:38:53.273Z,44.20
2023-02-07T18:41:27.989Z,44.00
2023-02-07T18:43:56.628Z,42.50
2023-02-07T18:46:25.196Z,39.50
2023-02-07T18:48:58.081Z,36.60
2023-02-07T18:51:26.442Z,41.20
2023-02-07T18:53:55.588Z,38.30
2023-02-07T18:56:27.015Z,37.40
2023-02-07T18:58:58.230Z,36.70
2023-02-07T19:01:30.827Z,37.40
2023-02-07T19:04:01.830Z,68.30
2023-02-07T19:06:33.618Z,58.80
2023-02-07T19:09:02.160Z,48.50
2023-02-07T19:11:30.678Z,55.60
2023-02-07T19:13:59.268Z,55.70
2023-02-07T19:16:28.137Z,63.70
2023-02-07T19:18:58.792Z,72.90
2023-02-07T19:21:34.922Z,71.70
2023-02-07T19:24:09.530Z,71.50
2023-02-07T19:26:41.825Z,75.70
2023-02-07T19:29:19.023Z,86.00
2023-02-07T19:31:47.791Z,118.20
2023-02-07T19:34:16.184Z,82.20
2023-02-07T19:36:44.738Z,81.40
2023-02-07T19:39:16.651Z,80.50
2023-02-07T19:41:45.270Z,45.00
2023-02-07T19:44:14.170Z,39.70
2023-02-07T19:46:45.366Z,44.00
2023-02-07T19:49:15.112Z,56.20
2023-02-07T19:51:43.867Z,43.70
2023-02-07T19:54:12.408Z,40.30
2023-02-07T19:56:42.743Z,42.00
2023-02-07T19:59:11.492Z,52.20
2023-02-07T20:01:41.601Z,49.90
2023-02-07T20:04:10.196Z,53.20
2023-02-07T20:06:39.110Z,47.30
2023-02-07T20:09:08.366Z,49.00
2023-02-07T20:11:39.973Z,44.60
2023-02-07T20:14:08.192Z,46.30
2023-02-07T20:16:39.087Z,44.20
2023-02-07T20:19:08.746Z,41.50
2023-02-07T20:21:37.640Z,40.10
2023-02-07T20:24:07.056Z,40.70
2023-02-07T20:26:42.862Z,43.00
2023-02-07T20:29:14.577Z,45.70
2023-02-07T20:31:45.017Z,50.20
2023-02-07T20:34:14.995Z,80.00
2023-02-07T20:36:44.271Z,73.20
2023-02-07T20:39:15.788Z,65.30
2023-02-07T20:41:46.527Z,66.80
2023-02-07T20:44:24.299Z,72.50
2023-02-07T20:46:54.288Z,75.10
2023-02-07T20:49:32.156Z,57.30
2023-02-07T20:52:01.306Z,46.80
2023-02-07T20:54:31.335Z,45.40
2023-02-07T20:57:02.265Z,42.50
2023-02-07T20:59:33.332Z,44.10
2023-02-07T21:02:02.359Z,49.20
2023-02-07T21:04:30.957Z,52.90
2023-02-07T21:07:00.788Z,58.80
2023-02-07T21:09:29.398Z,43.10
2023-02-07T21:11:58.738Z,44.40
2023-02-07T21:14:29.971Z,42.00
2023-02-07T21:17:06.578Z,42.60
2023-02-07T21:19:36.737Z,51.70
2023-02-07T21:22:05.312Z,40.40
2023-02-07T21:24:34.482Z,42.20
2023-02-07T21:27:05.414Z,55.30
2023-02-07T21:29:36.792Z,47.00
2023-02-07T21:32:07.850Z,40.50
2023-02-07T21:34:36.251Z,40.20
2023-02-07T21:37:04.590Z,43.10
2023-02-07T21:39:36.069Z,44.30
2023-02-07T21:42:04.638Z,47.10
2023-02-07T21:44:37.513Z,41.00
2023-02-07T21:47:05.821Z,47.70
2023-02-07T21:49:34.999Z,47.20
2023-02-07T21:52:03.663Z,49.30
2023-02-07T21:54:32.008Z,48.80
2023-02-07T21:57:00.303Z,47.30
2023-02-07T21:59:30.115Z,43.70
2023-02-07T22:01:58.683Z,41.10
2023-02-07T22:04:28.455Z,44.10
2023-02-07T22:06:56.962Z,51.40
2023-02-07T22:09:25.834Z,53.50
2023-02-07T22:11:54.966Z,47.00
2023-02-07T22:14:26.137Z,47.90
2023-02-07T22:16:55.301Z,46.20
2023-02-07T22:19:24.706Z,44.80
2023-02-07T22:21:53.179Z,44.40
2023-02-07T22:24:22.035Z,42.50
2023-02-07T22:26:50.302Z,40.20
2023-02-07T22:29:18.786Z,41.90
2023-02-07T22:31:47.673Z,44.50
2023-02-07T22:34:17.638Z,53.60
2023-02-07T22:36:46.615Z,51.60
2023-02-07T22:39:17.375Z,47.10
2023-02-07T22:41:46.481Z,50.60
2023-02-07T22:44:15.181Z,43.90
2023-02-07T22:46:44.092Z,44.90
2023-02-07T22:49:12.994Z,45.10
2023-02-07T22:51:41.471Z,46.10
2023-02-07T22:54:17.485Z,42.30
2023-02-07T22:56:46.271Z,45.40
2023-02-07T22:59:15.165Z,47.80
2023-02-07T23:01:44.792Z,52.10
2023-02-07T23:04:18.043Z,45.30
2023-02-07T23:06:47.593Z,42.30
2023-02-07T23:09:16.616Z,40.90
2023-02-07T23:11:45.464Z,41.80
2023-02-07T23:14:19.548Z,41.80
2023-02-07T23:16:47.949Z,39.70
2023-02-07T23:19:18.406Z,41.90
2023-02-07T23:21:46.927Z,45.30
2023-02-07T23:24:15.103Z,49.10
2023-02-07T23:26:43.372Z,51.70
2023-02-07T23:29:12.787Z,53.30
2023-02-07T23:31:41.046Z,48.60
2023-02-07T23:34:09.759Z,50.90
2023-02-07T23:36:38.882Z,48.70
2023-02-07T23:39:07.437Z,51.40
2023-02-07T23:41:39.223Z,54.00
2023-02-07T23:44:08.138Z,50.20
2023-02-07T23:46:36.685Z,44.50
2023-02-07T23:49:05.980Z,45.70
2023-02-07T23:51:39.882Z,48.40
2023-02-07T23:54:08.133Z,45.60
2023-02-07T23:56:36.524Z,45.40
2023-02-07T23:59:05.267Z,44.20
